Time;durP1;ratioP1;P1;durP2;ratioP2;P2;SDS_P1;SDS_P2;PMS_P1;PMS_P2;Temp;Humidity;BMP_temperature;BMP_pressure;BME280_temperature;BME280_humidity;BME280_pressure;Samples;Min_cycle;Max_cycle;Signal;HPM_P1;HPM_P2
2022/03/28 00:02:20;;;;;;;18.13;8.10;;;7.90;99.90;;;;;;4985150;28;20756;-54
2022/03/28 00:04:47;;;;;;;25.85;8.48;;;7.90;99.90;;;;;;4977539;28;20047;-55
2022/03/28 00:07:14;;;;;;;22.33;8.88;;;7.90;99.90;;;;;;4970285;28;20042;-56
2022/03/28 00:09:40;;;;;;;24.38;7.82;;;7.90;99.90;;;;;;4979934;28;20101;-56
2022/03/28 00:12:08;;;;;;;17.85;8.07;;;7.90;99.90;;;;;;4978622;28;20353;-55
2022/03/28 00:14:35;;;;;;;24.65;8.45;;;7.90;99.90;;;;;;4980152;28;20081;-55
2022/03/28 00:17:02;;;;;;;26.23;10.00;;;7.90;99.90;;;;;;4980572;28;20113;-55
2022/03/28 00:19:28;;;;;;;24.85;9.60;;;8.00;99.90;;;;;;4979229;28;20084;-54
2022/03/28 00:21:56;;;;;;;19.98;8.38;;;8.00;99.90;;;;;;4974559;28;20054;-56
2022/03/28 00:24:23;;;;;;;20.80;7.90;;;8.00;99.90;;;;;;4977603;28;20169;-57
2022/03/28 00:26:50;;;;;;;29.05;8.95;;;8.00;99.90;;;;;;4976639;28;20077;-57
2022/03/28 00:29:17;;;;;;;21.50;7.80;;;8.00;99.90;;;;;;4974304;28;20134;-57
2022/03/28 00:31:44;;;;;;;24.85;7.68;;;8.00;99.90;;;;;;4961655;28;20050;-58
2022/03/28 00:34:11;;;;;;;27.42;8.18;;;8.00;99.90;;;;;;4979732;28;20101;-57
2022/03/28 00:36:38;;;;;;;20.50;7.53;;;8.00;99.90;;;;;;4979565;28;20175;-58
2022/03/28 00:39:04;;;;;;;16.73;8.77;;;8.00;99.90;;;;;;4976764;28;20074;-56
2022/03/28 00:41:31;;;;;;;19.92;7.60;;;8.00;99.90;;;;;;4980708;28;20051;-54
2022/03/28 00:43:59;;;;;;;17.20;7.00;;;8.00;99.90;;;;;;4972915;28;20043;-57
2022/03/28 00:46:26;;;;;;;25.77;7.38;;;8.00;99.90;;;;;;4975825;28;20055;-57
2022/03/28 00:48:53;;;;;;;25.88;7.95;;;8.00;99.90;;;;;;4978360;28;20054;-57
2022/03/28 00:51:21;;;;;;;18.92;10.27;;;8.00;99.90;;;;;;4978694;28;20085;-56
2022/03/28 00:53:50;;;;;;;20.48;8.35;;;8.00;99.90;;;;;;4967004;28;20046;-57
2022/03/28 00:56:16;;;;;;;18.70;8.05;;;8.10;99.90;;;;;;4961223;28;20517;-57
2022/03/28 00:58:43;;;;;;;20.67;6.80;;;8.10;99.90;;;;;;4970658;28;20085;-55
2022/03/28 01:01:11;;;;;;;18.08;7.22;;;8.10;99.90;;;;;;4979253;28;20058;-55
2022/03/28 01:03:38;;;;;;;18.05;7.72;;;8.00;99.90;;;;;;4979546;28;20360;-53
2022/03/28 01:06:05;;;;;;;18.08;6.03;;;8.00;99.90;;;;;;4961678;28;20108;-59
2022/03/28 01:08:33;;;;;;;15.68;6.82;;;8.00;99.90;;;;;;4976562;28;20053;-57
2022/03/28 01:11:05;;;;;;;20.38;8.13;;;8.00;99.90;;;;;;4962439;28;20402;-56
2022/03/28 01:13:33;;;;;;;20.10;8.25;;;8.10;99.90;;;;;;4979110;28;20101;-56
2022/03/28 01:16:00;;;;;;;30.52;9.10;;;8.10;99.90;;;;;;4964421;28;20046;-55
2022/03/28 01:18:28;;;;;;;26.58;8.23;;;8.10;99.90;;;;;;4975074;28;20133;-55
2022/03/28 01:20:56;;;;;;;23.38;7.20;;;8.00;99.90;;;;;;4975926;28;20101;-57
2022/03/28 01:23:23;;;;;;;18.60;7.60;;;8.00;99.90;;;;;;4966441;28;20125;-55
2022/03/28 01:25:51;;;;;;;18.38;8.68;;;8.00;99.90;;;;;;4975475;28;20054;-55
2022/03/28 01:28:21;;;;;;;25.02;9.02;;;8.00;99.90;;;;;;4965451;28;20039;-56
2022/03/28 01:30:49;;;;;;;31.75;11.13;;;8.00;99.90;;;;;;4975714;28;20125;-55
2022/03/28 01:33:16;;;;;;;23.88;8.93;;;8.00;99.90;;;;;;4958584;28;20047;-55
2022/03/28 01:35:43;;;;;;;20.83;8.70;;;7.90;99.90;;;;;;4612889;28;9999928;-59
2022/03/28 01:38:12;;;;;;;21.08;8.10;;;7.90;99.90;;;;;;4977397;28;20058;-57
2022/03/28 01:40:44;;;;;;;22.05;10.07;;;7.80;99.90;;;;;;4977695;28;20046;-57
2022/03/28 01:43:12;;;;;;;24.67;8.88;;;7.70;99.90;;;;;;4970813;28;20050;-56
2022/03/28 01:45:39;;;;;;;25.52;9.98;;;7.80;99.90;;;;;;4982944;28;20058;-56
2022/03/28 01:48:06;;;;;;;23.08;9.40;;;7.80;99.90;;;;;;4977995;28;20133;-57
2022/03/28 01:50:33;;;;;;;26.50;11.02;;;7.80;99.90;;;;;;4978545;28;20070;-57
2022/03/28 01:52:59;;;;;;;23.02;9.63;;;7.80;99.90;;;;;;4978277;28;20129;-56
2022/03/28 01:55:26;;;;;;;20.67;9.13;;;7.80;99.90;;;;;;4962260;28;20490;-56
2022/03/28 01:57:53;;;;;;;24.42;10.30;;;7.80;99.90;;;;;;4962586;28;20047;-56
2022/03/28 02:00:21;;;;;;;25.50;12.55;;;7.80;99.90;;;;;;4970089;28;20106;-55
2022/03/28 02:02:48;;;;;;;22.15;10.88;;;7.80;99.90;;;;;;4981614;28;20517;-56
2022/03/28 02:05:15;;;;;;;29.67;10.80;;;7.80;99.90;;;;;;4979554;28;20054;-57
2022/03/28 02:07:47;;;;;;;22.65;10.75;;;7.80;99.90;;;;;;4981346;28;20054;-57
2022/03/28 02:10:15;;;;;;;28.40;10.95;;;7.80;99.90;;;;;;4976391;28;20047;-56
2022/03/28 02:12:42;;;;;;;31.65;10.38;;;7.80;99.90;;;;;;4980253;28;20168;-56
2022/03/28 02:15:10;;;;;;;18.80;10.20;;;7.90;99.90;;;;;;4975864;28;20093;-58
2022/03/28 02:17:38;;;;;;;24.05;11.75;;;7.80;99.90;;;;;;4963081;28;20058;-55
2022/03/28 02:20:05;;;;;;;28.75;11.77;;;7.80;99.90;;;;;;4980448;28;20457;-56
2022/03/28 02:22:33;;;;;;;25.90;13.93;;;7.70;99.90;;;;;;4979452;28;20043;-55
2022/03/28 02:25:00;;;;;;;27.23;13.40;;;7.60;99.90;;;;;;4980615;28;20057;-55
2022/03/28 02:27:27;;;;;;;27.27;11.13;;;7.70;99.90;;;;;;4972470;28;20054;-55
2022/03/28 02:29:54;;;;;;;24.73;12.10;;;7.70;99.90;;;;;;4979533;28;20042;-53
2022/03/28 02:32:20;;;;;;;28.80;12.80;;;7.60;99.90;;;;;;4982383;28;20042;-53
2022/03/28 02:34:47;;;;;;;28.70;12.65;;;7.50;99.90;;;;;;4977750;28;20070;-54
2022/03/28 02:37:14;;;;;;;28.02;13.43;;;7.60;99.90;;;;;;4972874;28;20059;-54
2022/03/28 02:39:41;;;;;;;25.77;13.75;;;7.60;99.90;;;;;;4976600;28;20089;-56
2022/03/28 02:42:09;;;;;;;28.88;13.95;;;7.60;99.90;;;;;;4971892;28;20125;-56
2022/03/28 02:44:36;;;;;;;21.77;11.90;;;7.60;99.90;;;;;;4978377;28;20051;-56
2022/03/28 02:47:04;;;;;;;28.95;11.93;;;7.70;99.90;;;;;;4977387;28;20078;-55
2022/03/28 02:49:30;;;;;;;30.15;14.70;;;7.70;99.90;;;;;;4979106;28;20081;-56
2022/03/28 02:51:57;;;;;;;35.78;14.52;;;7.70;99.90;;;;;;4974185;28;20073;-57
2022/03/28 02:54:24;;;;;;;29.30;13.05;;;7.70;99.90;;;;;;4960623;28;20046;-57
2022/03/28 02:56:51;;;;;;;31.23;13.98;;;7.70;99.90;;;;;;4981588;28;20054;-55
2022/03/28 02:59:18;;;;;;;29.88;15.45;;;7.60;99.90;;;;;;4981383;28;20497;-56
2022/03/28 03:01:45;;;;;;;32.08;13.88;;;7.70;99.90;;;;;;4977944;28;20466;-53
2022/03/28 03:04:12;;;;;;;25.08;13.10;;;7.70;99.90;;;;;;4974901;28;20054;-54
2022/03/28 03:06:39;;;;;;;25.02;14.18;;;7.70;99.90;;;;;;4977150;28;20058;-54
2022/03/28 03:09:06;;;;;;;28.95;13.73;;;7.70;99.90;;;;;;4977324;28;20093;-57
2022/03/28 03:11:33;;;;;;;33.72;12.98;;;7.70;99.90;;;;;;4983532;28;20054;-56
2022/03/28 03:14:00;;;;;;;22.35;12.43;;;7.70;99.90;;;;;;4968748;28;20094;-55
2022/03/28 03:16:26;;;;;;;29.27;14.82;;;7.60;99.90;;;;;;4978474;28;20151;-53
2022/03/28 03:18:54;;;;;;;34.70;14.45;;;7.60;99.90;;;;;;4981358;28;20493;-57
2022/03/28 03:21:22;;;;;;;38.55;14.23;;;7.60;99.90;;;;;;4977028;28;20054;-55
2022/03/28 03:23:48;;;;;;;30.17;16.30;;;7.60;99.90;;;;;;4967920;28;20101;-56
2022/03/28 03:26:15;;;;;;;29.70;17.02;;;7.60;99.90;;;;;;4976303;28;20042;-56
2022/03/28 03:28:42;;;;;;;26.42;13.05;;;7.60;99.90;;;;;;4976945;28;20054;-60
2022/03/28 03:31:09;;;;;;;28.00;14.38;;;7.60;99.90;;;;;;4979288;28;20039;-55
2022/03/28 03:33:35;;;;;;;32.13;14.60;;;7.40;99.90;;;;;;4979814;28;20209;-53
2022/03/28 03:36:02;;;;;;;39.80;15.70;;;7.40;99.90;;;;;;4978154;28;20086;-56
2022/03/28 03:38:30;;;;;;;31.42;14.95;;;7.30;99.90;;;;;;4980401;28;20043;-56
2022/03/28 03:40:56;;;;;;;34.33;17.60;;;7.30;99.90;;;;;;4977373;28;20145;-55
2022/03/28 03:43:25;;;;;;;37.65;16.83;;;7.20;99.90;;;;;;4977015;28;20054;-56
2022/03/28 03:45:52;;;;;;;30.85;15.85;;;7.10;99.90;;;;;;4957446;28;20080;-56
2022/03/28 03:48:19;;;;;;;34.22;16.75;;;7.20;99.90;;;;;;4973110;28;20101;-57
2022/03/28 03:50:46;;;;;;;36.78;17.45;;;7.20;99.90;;;;;;4976846;28;20057;-57
2022/03/28 03:53:13;;;;;;;35.72;17.55;;;7.30;99.90;;;;;;4959140;28;20051;-55
2022/03/28 03:55:41;;;;;;;41.53;17.45;;;7.20;99.90;;;;;;4962321;28;20109;-57
2022/03/28 03:58:07;;;;;;;37.40;17.17;;;7.20;99.90;;;;;;4974116;28;20088;-57
2022/03/28 04:00:35;;;;;;;34.88;18.58;;;7.30;99.90;;;;;;4976384;28;20113;-54
2022/03/28 04:03:03;;;;;;;42.13;19.27;;;7.30;99.90;;;;;;4979849;28;20534;-56
2022/03/28 04:05:30;;;;;;;37.53;17.77;;;7.30;99.90;;;;;;4986779;28;20116;-58
2022/03/28 04:07:57;;;;;;;36.53;17.52;;;7.30;99.90;;;;;;4975917;28;20059;-56
2022/03/28 04:10:24;;;;;;;35.03;17.92;;;7.30;99.90;;;;;;4979457;28;20062;-55
2022/03/28 04:12:50;;;;;;;34.17;16.13;;;7.30;99.90;;;;;;4978742;28;20390;-55
2022/03/28 04:15:17;;;;;;;37.65;18.45;;;7.20;99.90;;;;;;4977028;28;20050;-59
2022/03/28 04:17:44;;;;;;;33.72;17.75;;;7.10;99.90;;;;;;4962243;28;20043;-55
2022/03/28 04:20:13;;;;;;;30.33;16.42;;;7.20;99.90;;;;;;4977820;28;20054;-57
2022/03/28 04:22:40;;;;;;;30.65;16.25;;;7.20;99.90;;;;;;4980323;28;20054;-60
2022/03/28 04:25:08;;;;;;;34.80;15.40;;;7.10;99.90;;;;;;4980056;28;20065;-55
2022/03/28 04:27:36;;;;;;;28.35;13.85;;;7.20;99.90;;;;;;4976138;28;20054;-56
2022/03/28 04:30:04;;;;;;;31.73;17.15;;;7.10;99.90;;;;;;4962475;28;20169;-56
2022/03/28 04:32:31;;;;;;;40.08;14.18;;;7.00;99.90;;;;;;4977605;28;20086;-56
2022/03/28 04:34:58;;;;;;;36.75;15.48;;;7.00;99.90;;;;;;4973678;28;20230;-56
2022/03/28 04:37:25;;;;;;;34.20;16.70;;;6.90;99.90;;;;;;4979831;28;20521;-56
2022/03/28 04:39:52;;;;;;;29.98;14.80;;;7.10;99.90;;;;;;4977391;28;20181;-56
2022/03/28 04:42:18;;;;;;;36.00;17.52;;;7.10;99.90;;;;;;4976564;28;20050;-62
2022/03/28 04:44:45;;;;;;;30.58;16.95;;;7.10;99.90;;;;;;4980039;28;20042;-56
2022/03/28 04:47:12;;;;;;;41.00;19.52;;;7.10;99.90;;;;;;4984662;28;20104;-54
2022/03/28 04:49:39;;;;;;;32.28;18.17;;;7.10;99.90;;;;;;4971030;28;20078;-55
2022/03/28 04:52:05;;;;;;;78.72;19.48;;;7.10;99.90;;;;;;4978095;28;20054;-56
2022/03/28 04:54:32;;;;;;;50.90;16.02;;;7.00;99.90;;;;;;4976383;28;20094;-55
2022/03/28 04:56:59;;;;;;;45.92;16.58;;;6.90;99.90;;;;;;4971632;28;20447;-57
2022/03/28 04:59:28;;;;;;;68.32;16.17;;;6.90;99.90;;;;;;4978539;28;20070;-53
2022/03/28 05:01:55;;;;;;;37.85;16.92;;;7.00;99.90;;;;;;4971251;28;20186;-55
2022/03/28 05:04:22;;;;;;;39.95;17.73;;;6.90;99.90;;;;;;4977157;28;20074;-57
2022/03/28 05:06:49;;;;;;;47.08;18.77;;;6.90;99.90;;;;;;4971828;28;20516;-57
2022/03/28 05:09:15;;;;;;;33.45;17.75;;;6.90;99.90;;;;;;4977455;28;20115;-57
2022/03/28 05:11:42;;;;;;;66.15;18.17;;;6.90;99.90;;;;;;4958724;28;20149;-56
2022/03/28 05:14:09;;;;;;;44.03;16.45;;;6.80;99.90;;;;;;4976375;28;20109;-55
2022/03/28 05:16:36;;;;;;;44.30;17.60;;;6.80;99.90;;;;;;4972256;28;20067;-57
2022/03/28 05:19:03;;;;;;;44.20;16.08;;;6.70;99.90;;;;;;4976446;28;20055;-56
2022/03/28 05:21:30;;;;;;;66.60;19.48;;;6.60;99.90;;;;;;4978436;28;20050;-57
2022/03/28 05:23:57;;;;;;;31.35;15.98;;;6.50;99.90;;;;;;4978873;28;20074;-56
2022/03/28 05:26:26;;;;;;;52.97;19.55;;;6.50;99.90;;;;;;4982321;28;20043;-56
2022/03/28 05:28:53;;;;;;;34.70;18.35;;;6.60;99.90;;;;;;4977754;28;20133;-56
2022/03/28 05:31:20;;;;;;;40.92;18.08;;;6.60;99.90;;;;;;4974122;28;20043;-58
2022/03/28 05:33:47;;;;;;;44.20;18.23;;;6.60;99.90;;;;;;4976163;28;20053;-54
2022/03/28 05:36:14;;;;;;;40.83;18.95;;;6.70;99.90;;;;;;4980443;28;20051;-55
2022/03/28 05:38:42;;;;;;;41.50;18.85;;;6.80;99.90;;;;;;4982249;28;20478;-54
2022/03/28 05:41:09;;;;;;;66.63;21.40;;;6.70;99.90;;;;;;4980909;28;20039;-55
2022/03/28 05:43:36;;;;;;;86.38;19.98;;;6.70;99.90;;;;;;4957505;28;20328;-52
2022/03/28 05:46:03;;;;;;;43.00;19.88;;;6.80;99.90;;;;;;4963733;28;20047;-52
2022/03/28 05:48:30;;;;;;;37.17;18.55;;;6.70;99.90;;;;;;4977669;28;20058;-51
2022/03/28 05:50:57;;;;;;;51.42;22.20;;;6.80;99.90;;;;;;4962395;28;20121;-55
2022/03/28 05:53:24;;;;;;;41.13;20.48;;;6.90;99.90;;;;;;4974898;28;20494;-55
2022/03/28 05:55:51;;;;;;;75.65;22.02;;;6.90;99.90;;;;;;4980077;28;20086;-56
2022/03/28 05:58:18;;;;;;;46.58;21.98;;;6.90;99.90;;;;;;4975232;28;20395;-56
2022/03/28 06:00:45;;;;;;;46.00;20.25;;;7.00;99.90;;;;;;4979274;28;20134;-57
2022/03/28 06:03:12;;;;;;;55.58;19.67;;;7.00;99.90;;;;;;4977586;28;20047;-66
2022/03/28 06:05:59;;;;;;;44.10;21.45;;;7.00;99.90;;;;;;4982264;28;20568;-58
2022/03/28 06:08:26;;;;;;;43.40;20.80;;;7.00;99.90;;;;;;4969973;28;20089;-55
2022/03/28 06:10:54;;;;;;;58.03;21.77;;;7.00;99.90;;;;;;4982359;28;20078;-57
2022/03/28 06:13:21;;;;;;;60.33;19.88;;;7.00;99.90;;;;;;4962753;28;20513;-57
2022/03/28 06:15:49;;;;;;;49.70;20.27;;;6.90;99.90;;;;;;4978674;28;20097;-58
2022/03/28 06:18:16;;;;;;;71.80;20.55;;;6.90;99.90;;;;;;4985173;28;20137;-57
2022/03/28 06:20:43;;;;;;;45.40;20.17;;;6.80;99.90;;;;;;4978594;28;20086;-58
2022/03/28 06:23:12;;;;;;;59.88;19.08;;;6.80;99.90;;;;;;4976898;28;20515;-58
2022/03/28 06:25:39;;;;;;;38.97;18.77;;;6.90;99.90;;;;;;4976367;28;20055;-56
2022/03/28 06:28:06;;;;;;;43.05;17.27;;;6.90;99.90;;;;;;4977685;28;20553;-55
2022/03/28 06:30:33;;;;;;;39.47;17.67;;;6.90;99.90;;;;;;4979297;28;20490;-57
2022/03/28 06:33:00;;;;;;;39.60;18.35;;;6.90;99.90;;;;;;4977657;28;20113;-58
2022/03/28 06:35:26;;;;;;;43.47;18.65;;;7.00;99.90;;;;;;4958613;28;20051;-56
2022/03/28 06:37:53;;;;;;;50.22;18.92;;;6.90;99.90;;;;;;4967065;28;20082;-56
2022/03/28 06:40:20;;;;;;;41.33;17.15;;;6.90;99.90;;;;;;4976860;28;20098;-56
2022/03/28 06:42:47;;;;;;;57.38;19.38;;;6.80;99.90;;;;;;4987509;28;20085;-56
2022/03/28 06:45:15;;;;;;;37.33;18.40;;;6.80;99.90;;;;;;4979553;28;20050;-56
2022/03/28 06:47:51;;;;;;;34.00;15.32;;;6.80;99.90;;;;;;4979085;28;20080;-57
2022/03/28 06:50:19;;;;;;;49.90;17.17;;;6.80;99.90;;;;;;4975973;28;20557;-56
2022/03/28 06:52:45;;;;;;;47.05;18.15;;;6.80;99.90;;;;;;4980264;28;20509;-56
2022/03/28 06:55:12;;;;;;;49.30;16.95;;;6.80;99.90;;;;;;4976959;28;20074;-58
2022/03/28 06:57:39;;;;;;;38.78;17.33;;;6.80;99.90;;;;;;4978252;28;20042;-57
2022/03/28 07:00:06;;;;;;;49.22;17.42;;;6.80;99.90;;;;;;4977281;28;20074;-59
2022/03/28 07:02:33;;;;;;;50.63;16.48;;;6.70;99.90;;;;;;4981196;28;20517;-56
2022/03/28 07:05:00;;;;;;;35.00;16.52;;;6.80;99.90;;;;;;4977969;28;20702;-56
2022/03/28 07:07:27;;;;;;;47.63;18.70;;;6.80;99.90;;;;;;4977532;28;20504;-59
2022/03/28 07:09:54;;;;;;;55.63;18.25;;;6.70;99.90;;;;;;4974407;28;20046;-56
2022/03/28 07:12:21;;;;;;;46.55;17.38;;;6.70;99.90;;;;;;4974600;28;20074;-55
2022/03/28 07:14:47;;;;;;;88.72;19.80;;;6.80;99.90;;;;;;4972014;28;20094;-57
2022/03/28 07:17:14;;;;;;;50.55;21.27;;;6.80;99.90;;;;;;4976761;28;20078;-57
2022/03/28 07:19:41;;;;;;;46.55;19.75;;;6.80;99.90;;;;;;4975595;28;20043;-55
2022/03/28 07:22:08;;;;;;;43.53;19.85;;;6.90;99.90;;;;;;4980053;28;20082;-55
2022/03/28 07:24:35;;;;;;;64.90;19.98;;;7.00;99.90;;;;;;4960246;28;20098;-55
2022/03/28 07:27:02;;;;;;;66.53;20.00;;;7.10;99.90;;;;;;4971023;28;20146;-54
2022/03/28 07:29:29;;;;;;;36.22;17.98;;;7.00;99.90;;;;;;4979184;28;20054;-56
2022/03/28 07:31:56;;;;;;;60.10;20.23;;;6.90;99.90;;;;;;4968325;28;20490;-55
2022/03/28 07:34:29;;;;;;;46.92;19.65;;;6.90;99.90;;;;;;4977385;28;20691;-54
2022/03/28 07:37:02;;;;;;;44.25;21.05;;;7.00;99.90;;;;;;4977581;28;20050;-56
2022/03/28 07:39:29;;;;;;;53.55;20.77;;;7.00;99.90;;;;;;4979166;28;20518;-58
2022/03/28 07:41:56;;;;;;;49.65;21.33;;;7.10;99.90;;;;;;4978588;28;20080;-57
2022/03/28 07:44:23;;;;;;;54.25;20.88;;;7.20;99.90;;;;;;4979476;28;20054;-56
2022/03/28 07:46:50;;;;;;;90.65;23.00;;;7.10;99.90;;;;;;4980843;28;20078;-57
2022/03/28 07:49:17;;;;;;;113.53;22.27;;;7.10;99.90;;;;;;4980491;28;20058;-57
2022/03/28 07:51:45;;;;;;;47.85;22.02;;;6.90;99.90;;;;;;4977717;28;20047;-57
2022/03/28 07:54:11;;;;;;;70.95;25.38;;;6.90;99.90;;;;;;4976956;28;20082;-56
2022/03/28 07:56:39;;;;;;;55.50;23.88;;;6.90;99.90;;;;;;4972719;28;20063;-57
2022/03/28 07:59:07;;;;;;;51.42;22.73;;;6.90;99.90;;;;;;4976092;28;20519;-57
2022/03/28 08:01:34;;;;;;;45.58;22.00;;;7.00;99.90;;;;;;4971724;28;20050;-56
2022/03/28 08:04:02;;;;;;;53.58;23.05;;;7.00;99.90;;;;;;4974991;28;20074;-55
2022/03/28 08:06:29;;;;;;;83.32;22.50;;;7.00;99.90;;;;;;4976485;28;20050;-57
2022/03/28 08:08:55;;;;;;;61.50;24.70;;;7.10;99.90;;;;;;4980519;28;20050;-50
2022/03/28 08:11:22;;;;;;;55.97;26.33;;;7.10;99.90;;;;;;4980215;28;20627;-52
2022/03/28 08:13:49;;;;;;;49.30;24.27;;;7.20;99.90;;;;;;4982954;28;20426;-56
2022/03/28 08:16:16;;;;;;;50.20;24.02;;;7.30;99.90;;;;;;4964702;28;20074;-56
2022/03/28 08:18:43;;;;;;;44.67;21.70;;;7.50;99.90;;;;;;4982652;28;20624;-55
2022/03/28 08:21:10;;;;;;;45.17;23.75;;;7.50;99.90;;;;;;4966055;28;20078;-57
2022/03/28 08:23:37;;;;;;;49.33;22.50;;;7.60;99.90;;;;;;4983980;28;20053;-57
2022/03/28 08:26:04;;;;;;;48.58;24.60;;;7.60;99.90;;;;;;4959998;28;20047;-53
2022/03/28 08:28:32;;;;;;;58.03;25.75;;;7.70;99.90;;;;;;4981143;28;20046;-54
2022/03/28 08:30:59;;;;;;;47.38;22.80;;;7.70;99.90;;;;;;4962971;28;20043;-56
2022/03/28 08:33:26;;;;;;;43.35;21.95;;;7.70;99.90;;;;;;4982066;28;20046;-55
2022/03/28 08:35:53;;;;;;;43.10;21.40;;;7.80;99.90;;;;;;4982869;28;20081;-58
2022/03/28 08:38:21;;;;;;;41.50;21.58;;;7.80;99.90;;;;;;4975557;28;20097;-57
2022/03/28 08:40:48;;;;;;;47.72;21.45;;;7.90;99.90;;;;;;4977574;28;20046;-55
2022/03/28 08:43:19;;;;;;;46.83;22.40;;;7.90;99.90;;;;;;4982949;28;20058;-59
2022/03/28 08:45:47;;;;;;;44.55;22.70;;;7.90;99.90;;;;;;4979223;28;20051;-56
2022/03/28 08:48:14;;;;;;;43.78;23.88;;;8.00;99.90;;;;;;4963455;28;20046;-59
2022/03/28 08:50:51;;;;;;;50.78;24.67;;;7.90;99.90;;;;;;4964701;28;20051;-55
2022/03/28 08:53:18;;;;;;;45.08;23.67;;;8.10;99.90;;;;;;4981379;28;20097;-54
2022/03/28 08:55:45;;;;;;;56.15;25.35;;;8.20;99.90;;;;;;4976624;28;20108;-58
2022/03/28 08:58:13;;;;;;;53.58;26.10;;;8.20;99.90;;;;;;4962700;28;20054;-56
2022/03/28 09:00:40;;;;;;;48.13;24.60;;;8.20;99.90;;;;;;4976063;28;20054;-56
2022/03/28 09:03:07;;;;;;;54.88;26.80;;;8.20;99.90;;;;;;4975850;28;20101;-57
2022/03/28 09:05:35;;;;;;;47.15;24.63;;;8.30;99.90;;;;;;4985526;28;20136;-56
2022/03/28 09:08:02;;;;;;;51.50;24.33;;;8.30;99.90;;;;;;4980864;28;20050;-60
2022/03/28 09:10:34;;;;;;;52.80;25.98;;;8.30;99.90;;;;;;4968228;28;20137;-55
2022/03/28 09:13:02;;;;;;;48.88;26.48;;;8.50;99.90;;;;;;4977561;28;20126;-57
2022/03/28 09:15:52;;;;;;;49.20;25.73;;;8.60;99.90;;;;;;4978200;28;20438;-56
2022/03/28 09:18:32;;;;;;;56.53;27.63;;;8.60;99.90;;;;;;4976438;28;20574;-60
2022/03/28 09:21:04;;;;;;;49.25;26.30;;;8.70;99.90;;;;;;4975934;28;20126;-57
2022/03/28 09:23:35;;;;;;;54.17;27.17;;;8.90;99.90;;;;;;4961221;28;20070;-56
2022/03/28 09:26:13;;;;;;;54.47;28.13;;;9.00;99.90;;;;;;4983950;28;20105;-58
2022/03/28 09:29:00;;;;;;;54.05;26.92;;;9.10;99.90;;;;;;4979037;28;20112;-57
2022/03/28 09:31:32;;;;;;;48.33;25.55;;;9.10;99.90;;;;;;4987307;28;20057;-52
2022/03/28 09:34:01;;;;;;;49.28;24.38;;;9.20;99.90;;;;;;4977718;28;20050;-56
2022/03/28 09:36:45;;;;;;;42.85;23.48;;;9.40;99.90;;;;;;4975061;28;20066;-59
2022/03/28 09:39:18;;;;;;;;;;;9.50;99.90;;;;;;4976221;28;20114;-58
2022/03/28 09:41:57;;;;;;;52.67;25.20;;;9.60;99.90;;;;;;4985595;28;20020;-56
2022/03/28 09:44:42;;;;;;;44.95;24.10;;;9.60;99.90;;;;;;4978810;28;20502;-57
2022/03/28 09:47:17;;;;;;;55.47;22.98;;;9.50;99.90;;;;;;4978021;28;20047;-55
2022/03/28 09:49:45;;;;;;;50.65;25.50;;;9.60;99.90;;;;;;4981726;28;20047;-60
2022/03/28 09:52:20;;;;;;;53.38;24.25;;;9.70;99.90;;;;;;4977214;28;20071;-54
2022/03/28 09:54:59;;;;;;;49.17;25.35;;;9.60;99.90;;;;;;4976346;28;20046;-56
2022/03/28 09:57:33;;;;;;;43.90;24.58;;;9.70;99.90;;;;;;4976254;28;20181;-56
2022/03/28 10:00:26;;;;;;;47.35;24.30;;;9.80;99.90;;;;;;4980096;28;20042;-58
2022/03/28 10:02:53;;;;;;;51.75;24.13;;;9.90;99.90;;;;;;4974447;28;20075;-55
2022/03/28 10:05:20;;;;;;;39.05;22.55;;;10.10;99.90;;;;;;4949955;28;20675;-58
2022/03/28 10:07:49;;;;;;;52.38;25.05;;;10.20;99.90;;;;;;4979933;28;20109;-55
2022/03/28 10:10:16;;;;;;;53.08;25.27;;;10.20;99.90;;;;;;4963864;28;20445;-59
2022/03/28 10:12:43;;;;;;;49.95;25.45;;;10.20;99.90;;;;;;4967523;28;20343;-57
2022/03/28 10:15:10;;;;;;;46.53;24.48;;;10.20;99.90;;;;;;4946184;28;20096;-57
2022/03/28 10:17:36;;;;;;;53.80;26.63;;;10.20;99.90;;;;;;4971404;28;20074;-57
2022/03/28 10:20:04;;;;;;;58.83;27.67;;;10.20;99.90;;;;;;4980159;28;20054;-58
2022/03/28 10:22:52;;;;;;;55.25;26.80;;;10.20;99.90;;;;;;4974692;28;20082;-56
2022/03/28 10:25:21;;;;;;;51.83;24.10;;;10.20;99.90;;;;;;4963020;28;20133;-57
2022/03/28 10:27:49;;;;;;;46.60;23.30;;;10.20;99.90;;;;;;4951524;28;20078;-56
2022/03/28 10:30:27;;;;;;;38.88;23.35;;;10.30;99.90;;;;;;4979866;28;20051;-55
2022/03/28 10:33:18;;;;;;;47.55;25.67;;;10.40;99.90;;;;;;4978992;28;20118;-57
2022/03/28 10:36:00;;;;;;;39.53;21.45;;;10.40;99.90;;;;;;4980110;28;20050;-57
2022/03/28 10:38:28;;;;;;;41.67;21.52;;;10.40;99.90;;;;;;4973050;28;20046;-55
2022/03/28 10:40:56;;;;;;;44.58;23.38;;;10.30;99.90;;;;;;4980497;28;20093;-56
2022/03/28 10:43:25;;;;;;;44.17;26.17;;;10.30;99.90;;;;;;4981651;28;20093;-55
2022/03/28 10:45:56;;;;;;;42.85;23.27;;;10.40;99.90;;;;;;4964084;28;20043;-56
2022/03/28 10:48:42;;;;;;;44.72;22.65;;;10.50;99.90;;;;;;4964335;28;20087;-57
2022/03/28 10:51:19;;;;;;;50.88;23.83;;;10.60;99.90;;;;;;4980224;28;20050;-58
2022/03/28 10:54:05;;;;;;;44.50;24.27;;;10.70;99.90;;;;;;4985087;28;20046;-57
2022/03/28 10:56:45;;;;;;;46.42;23.38;;;10.70;99.90;;;;;;4979112;28;20328;-55
2022/03/28 10:59:17;;;;;;;47.13;23.65;;;10.80;99.90;;;;;;4985895;28;20046;-56
2022/03/28 11:01:46;;;;;;;46.50;22.30;;;10.80;99.90;;;;;;4981388;28;20060;-57
2022/03/28 11:04:15;;;;;;;55.10;23.92;;;10.90;99.90;;;;;;4971458;28;20050;-57
2022/03/28 11:07:00;;;;;;;37.00;20.67;;;10.90;99.90;;;;;;4979048;28;20082;-58
2022/03/28 11:09:40;;;;;;;40.63;21.95;;;10.90;99.90;;;;;;4971361;28;20050;-57
2022/03/28 11:12:37;;;;;;;42.33;20.60;;;11.00;99.90;;;;;;4979341;28;20058;-55
2022/03/28 11:15:13;;;;;;;43.50;21.63;;;11.20;99.90;;;;;;4974180;28;20050;-56
2022/03/28 11:17:57;;;;;;;39.25;20.48;;;11.30;99.90;;;;;;4981982;28;20053;-57
2022/03/28 11:20:25;;;;;;;39.65;22.75;;;11.40;99.90;;;;;;4979762;28;20441;-57
2022/03/28 11:22:56;;;;;;;47.72;22.10;;;11.40;99.90;;;;;;4976367;28;20050;-56
2022/03/28 11:25:30;;;;;;;47.10;24.13;;;11.40;99.90;;;;;;4986114;28;20118;-57
2022/03/28 11:28:13;;;;;;;53.05;23.40;;;11.50;99.90;;;;;;4981430;28;20039;-58
2022/03/28 11:30:46;;;;;;;44.15;23.33;;;11.60;99.90;;;;;;4961642;28;20054;-56
2022/03/28 11:33:24;;;;;;;38.30;22.20;;;11.60;99.90;;;;;;4982195;28;20042;-57
2022/03/28 11:35:52;;;;;;;40.13;23.73;;;11.70;99.90;;;;;;4966157;28;20050;-55
2022/03/28 11:38:23;;;;;;;44.83;24.75;;;11.80;99.90;;;;;;4980498;28;20099;-58
2022/03/28 11:40:50;;;;;;;41.22;22.25;;;11.90;99.90;;;;;;4983179;28;20042;-57
2022/03/28 11:43:25;;;;;;;46.45;23.08;;;11.90;99.90;;;;;;4976858;28;20046;-57
2022/03/28 11:45:54;;;;;;;37.25;21.08;;;11.90;99.90;;;;;;4977486;28;20501;-57
2022/03/28 11:48:21;;;;;;;36.58;21.98;;;11.90;99.90;;;;;;4986432;28;20054;-58
2022/03/28 11:50:47;;;;;;;39.05;20.02;;;12.00;99.90;;;;;;4982630;28;20085;-56
2022/03/28 11:53:15;;;;;;;43.22;21.60;;;12.00;99.90;;;;;;4962224;28;20085;-57
2022/03/28 11:55:50;;;;;;;34.40;19.50;;;11.90;99.90;;;;;;4984464;28;20129;-57
2022/03/28 11:58:19;;;;;;;34.40;19.05;;;12.00;99.90;;;;;;4960672;28;20046;-58
2022/03/28 12:00:48;;;;;;;33.03;18.38;;;12.10;99.90;;;;;;4971042;28;20055;-60
2022/03/28 12:03:15;;;;;;;33.50;19.33;;;12.20;99.90;;;;;;4980819;28;20050;-57
2022/03/28 12:05:46;;;;;;;35.42;19.88;;;12.40;99.90;;;;;;4976516;28;20047;-58
2022/03/28 12:08:14;;;;;;;38.28;19.83;;;12.50;99.90;;;;;;4980810;28;20053;-56
2022/03/28 12:10:42;;;;;;;39.03;19.90;;;12.50;99.90;;;;;;4969269;28;20088;-56
2022/03/28 12:13:10;;;;;;;32.08;18.27;;;12.50;99.90;;;;;;4984577;28;20054;-56
2022/03/28 12:15:39;;;;;;;37.20;20.25;;;12.60;99.90;;;;;;4976345;28;20061;-57
2022/03/28 12:18:07;;;;;;;34.40;19.90;;;12.60;99.90;;;;;;4979862;28;20051;-56
2022/03/28 12:20:42;;;;;;;33.85;17.83;;;12.60;99.90;;;;;;4978438;28;20490;-57
2022/03/28 12:23:09;;;;;;;29.73;16.02;;;12.70;99.90;;;;;;4977602;28;20047;-57
2022/03/28 12:25:41;;;;;;;35.92;17.70;;;12.80;99.90;;;;;;4983262;28;20058;-57
2022/03/28 12:28:09;;;;;;;29.73;16.25;;;13.00;99.90;;;;;;4979402;28;20529;-56
2022/03/28 12:30:41;;;;;;;32.42;17.88;;;13.10;99.90;;;;;;4982376;28;20114;-57
2022/03/28 12:33:12;;;;;;;23.50;15.82;;;13.20;99.90;;;;;;4980569;28;20052;-57
2022/03/28 12:35:41;;;;;;;24.63;15.90;;;13.30;99.90;;;;;;4980504;28;20541;-59
2022/03/28 12:38:11;;;;;;;21.27;12.05;;;13.40;99.90;;;;;;4974830;28;20108;-57
2022/03/28 12:40:37;;;;;;;22.35;14.63;;;13.50;99.90;;;;;;4976338;28;20097;-58
2022/03/28 12:43:04;;;;;;;21.58;13.75;;;13.60;99.90;;;;;;4969035;28;20050;-57
2022/03/28 12:45:31;;;;;;;18.25;12.13;;;13.60;99.90;;;;;;4980576;28;20093;-58